createdAt,value
2022-08-12T00:00:32.352Z,2.55
2022-08-12T00:06:04.523Z,2.20
2022-08-12T00:11:26.389Z,2.25
2022-08-12T00:16:47.824Z,2.10
2022-08-12T00:22:10.275Z,2.35
2022-08-12T00:27:43.876Z,2.28
2022-08-12T00:33:07.090Z,2.45
2022-08-12T00:38:29.779Z,2.33
2022-08-12T00:43:35.300Z,1.85
2022-08-12T00:48:41.186Z,2.28
2022-08-12T00:53:45.936Z,2.03
2022-08-12T00:58:51.408Z,2.78
2022-08-12T01:04:13.124Z,2.50
2022-08-12T01:09:35.794Z,2.13
2022-08-12T01:14:40.917Z,2.45
2022-08-12T01:19:44.751Z,2.40
2022-08-12T01:25:03.842Z,2.53
2022-08-12T01:30:09.979Z,2.65
2022-08-12T01:35:17.544Z,3.13
2022-08-12T01:40:34.259Z,4.00
2022-08-12T01:45:46.342Z,3.10
2022-08-12T01:51:01.585Z,3.15
2022-08-12T01:56:12.513Z,2.17
2022-08-12T02:01:16.730Z,2.58
2022-08-12T02:06:44.939Z,2.90
2022-08-12T02:11:58.860Z,3.08
2022-08-12T02:17:24.155Z,2.88
2022-08-12T02:22:47.383Z,2.65
2022-08-12T02:27:54.808Z,3.05
2022-08-12T02:33:00.723Z,2.72
2022-08-12T02:38:06.729Z,2.75
2022-08-12T02:43:18.561Z,2.88
2022-08-12T02:48:30.868Z,2.93
2022-08-12T02:53:36.027Z,3.17
2022-08-12T02:58:45.444Z,3.17
2022-08-12T03:03:54.034Z,2.80
2022-08-12T03:09:00.842Z,3.50
2022-08-12T03:14:11.228Z,2.63
2022-08-12T03:19:14.871Z,3.13
2022-08-12T03:24:18.675Z,3.15
2022-08-12T03:29:31.227Z,2.95
2022-08-12T03:39:45.004Z,2.85
2022-08-12T03:45:15.852Z,3.45
2022-08-12T03:50:37.902Z,3.22
2022-08-12T03:55:59.293Z,2.93
2022-08-12T04:01:05.773Z,3.20
2022-08-12T04:06:10.495Z,3.35
2022-08-12T04:11:32.260Z,3.10
2022-08-12T04:16:37.967Z,3.08
2022-08-12T04:21:42.137Z,2.83
2022-08-12T04:27:08.607Z,3.35
2022-08-12T04:32:13.983Z,3.08
2022-08-12T04:37:17.425Z,2.85
2022-08-12T04:42:21.360Z,2.63
2022-08-12T04:47:26.637Z,2.45
2022-08-12T04:52:34.738Z,2.58
2022-08-12T04:57:38.360Z,2.70
2022-08-12T05:02:43.884Z,2.78
2022-08-12T05:07:54.887Z,2.63
2022-08-12T05:13:01.204Z,2.50
2022-08-12T05:18:19.432Z,2.30
2022-08-12T05:23:23.615Z,2.22
2022-08-12T05:28:28.061Z,2.60
2022-08-12T05:33:37.592Z,2.72
2022-08-12T05:38:57.298Z,4.38
2022-08-12T05:44:04.828Z,2.25
2022-08-12T05:49:10.186Z,2.30
2022-08-12T05:54:13.657Z,2.30
2022-08-12T05:59:17.556Z,2.15
2022-08-12T06:04:22.271Z,2.05
2022-08-12T06:09:26.765Z,2.30
2022-08-12T06:14:31.750Z,2.00
2022-08-12T06:20:27.893Z,2.00
2022-08-12T06:25:00.511Z,1.95
2022-08-12T06:30:09.956Z,2.25
2022-08-12T06:35:24.995Z,2.08
2022-08-12T06:40:48.315Z,2.08
2022-08-12T06:45:51.878Z,2.22
2022-08-12T06:50:57.598Z,2.15
2022-08-12T06:56:01.620Z,2.05
2022-08-12T07:01:05.600Z,2.30
2022-08-12T07:06:11.708Z,2.20
2022-08-12T07:11:16.132Z,2.10
2022-08-12T07:16:21.062Z,2.40
2022-08-12T07:21:59.938Z,2.15
2022-08-12T07:26:50.927Z,1.92
2022-08-12T07:31:59.325Z,1.92
2022-08-12T07:37:04.007Z,2.35
2022-08-12T07:42:07.817Z,2.00
2022-08-12T07:47:12.730Z,1.63
2022-08-12T07:52:17.613Z,2.30
2022-08-12T07:57:21.929Z,2.05
2022-08-12T08:02:26.750Z,1.73
2022-08-12T08:07:32.083Z,1.90
2022-08-12T08:12:53.095Z,1.70
2022-08-12T08:18:02.666Z,1.80
2022-08-12T08:23:10.530Z,1.70
2022-08-12T08:28:17.154Z,1.67
2022-08-12T08:33:23.612Z,1.70
2022-08-12T08:38:55.956Z,1.90
2022-08-12T08:44:03.146Z,1.88
2022-08-12T08:49:06.559Z,1.20
2022-08-12T08:54:12.162Z,1.80
2022-08-12T08:59:15.860Z,1.50
2022-08-12T09:05:09.417Z,1.70
2022-08-12T09:10:02.487Z,1.60
2022-08-12T09:15:16.752Z,1.67
2022-08-12T09:20:28.009Z,1.60
2022-08-12T09:25:35.495Z,1.88
2022-08-12T09:30:41.423Z,1.60
2022-08-12T09:35:46.216Z,1.83
2022-08-12T09:41:01.466Z,1.92
2022-08-12T09:46:22.178Z,2.70
2022-08-12T09:51:37.585Z,1.95
2022-08-12T09:57:02.238Z,2.05
2022-08-12T10:02:45.195Z,2.17
2022-08-12T10:07:39.385Z,1.92
2022-08-12T10:13:07.257Z,1.92
2022-08-12T10:18:14.531Z,1.88
2022-08-12T10:23:19.042Z,2.80
2022-08-12T10:29:03.201Z,1.98
2022-08-12T10:34:23.483Z,2.05
2022-08-12T10:40:01.132Z,1.90
2022-08-12T10:45:03.765Z,1.70
2022-08-12T10:50:35.860Z,1.63
2022-08-12T10:55:33.766Z,2.53
2022-08-12T11:01:25.797Z,2.53
2022-08-12T11:07:05.151Z,2.10
2022-08-12T11:12:35.247Z,1.95
2022-08-12T11:17:34.293Z,1.88
2022-08-12T11:22:24.982Z,2.17
2022-08-12T11:27:29.590Z,1.85
2022-08-12T11:32:38.618Z,1.50
2022-08-12T11:37:58.804Z,1.65
2022-08-12T11:43:18.568Z,1.90
2022-08-12T11:48:26.904Z,1.83
2022-08-12T11:53:57.431Z,1.63
2022-08-12T12:01:57.637Z,1.60
2022-08-12T12:04:28.813Z,1.80
2022-08-12T12:09:52.837Z,1.40
2022-08-12T12:15:00.479Z,1.88
2022-08-12T12:20:13.900Z,1.70
2022-08-12T12:25:19.796Z,1.58
2022-08-12T12:30:29.747Z,1.90
2022-08-12T12:36:18.695Z,1.48
2022-08-12T12:40:58.915Z,1.65
2022-08-12T12:46:02.327Z,1.42
2022-08-12T12:51:48.118Z,1.52
2022-08-12T12:56:44.484Z,1.75
2022-08-12T13:01:48.085Z,2.80
2022-08-12T13:06:54.918Z,2.05
2022-08-12T13:12:01.558Z,2.25
2022-08-12T13:17:06.086Z,3.30
2022-08-12T13:22:20.411Z,1.50
2022-08-12T13:27:35.765Z,1.58
2022-08-12T13:32:40.817Z,1.63
2022-08-12T13:37:55.308Z,1.90
2022-08-12T13:43:01.890Z,1.75
2022-08-12T13:48:09.189Z,1.85
2022-08-12T13:53:24.605Z,1.80
2022-08-12T13:58:37.429Z,1.80
2022-08-12T14:03:51.055Z,2.00
2022-08-12T14:08:56.780Z,2.00
2022-08-12T14:14:05.472Z,1.80
2022-08-12T14:19:22.670Z,1.80
2022-08-12T14:24:40.638Z,1.70
2022-08-12T14:30:04.635Z,1.80
2022-08-12T14:35:12.333Z,1.85
2022-08-12T14:40:23.414Z,1.45
2022-08-12T14:45:44.995Z,1.60
2022-08-12T14:51:02.583Z,1.60
2022-08-12T15:01:42.553Z,1.50
2022-08-12T15:06:52.645Z,1.25
2022-08-12T15:17:08.333Z,1.45
2022-08-12T15:22:38.561Z,1.40
2022-08-12T15:28:05.291Z,1.50
2022-08-12T15:33:12.596Z,1.55
2022-08-12T15:38:20.419Z,1.27
2022-08-12T15:44:15.576Z,1.48
2022-08-12T15:48:49.425Z,1.23
2022-08-12T15:54:33.296Z,1.52
2022-08-12T16:00:03.740Z,1.83
2022-08-12T16:04:56.125Z,1.60
2022-08-12T16:10:05.407Z,1.67
2022-08-12T16:15:13.171Z,1.70
2022-08-12T16:20:21.401Z,1.55
2022-08-12T16:25:45.461Z,1.90
2022-08-12T16:30:50.299Z,1.45
2022-08-12T16:35:54.062Z,1.60
2022-08-12T16:40:57.524Z,1.55
2022-08-12T16:46:31.043Z,1.83
2022-08-12T16:51:30.850Z,2.33
2022-08-12T16:56:55.230Z,1.92
2022-08-12T17:02:05.671Z,2.10
2022-08-12T17:07:17.213Z,1.85
2022-08-12T17:12:22.513Z,1.77
2022-08-12T17:17:39.227Z,2.00
2022-08-12T17:22:56.435Z,2.95
2022-08-12T17:28:02.202Z,2.08
2022-08-12T17:33:13.285Z,1.80
2022-08-12T17:38:21.082Z,2.00
2022-08-12T17:43:51.778Z,2.80
2022-08-12T17:48:54.998Z,2.72
2022-08-12T17:54:10.709Z,2.10
2022-08-12T17:59:27.457Z,2.30
2022-08-12T18:05:03.116Z,2.28
2022-08-12T18:10:08.895Z,2.67
2022-08-12T18:15:26.530Z,2.40
2022-08-12T18:20:45.021Z,2.97
2022-08-12T18:26:16.710Z,3.05
2022-08-12T18:31:23.765Z,3.00
2022-08-12T18:36:30.490Z,3.30
2022-08-12T18:41:35.928Z,2.60
2022-08-12T18:46:54.079Z,2.90
2022-08-12T18:52:04.683Z,3.30
2022-08-12T18:57:16.166Z,3.70
2022-08-12T19:02:23.377Z,3.10
2022-08-12T19:07:29.932Z,4.15
2022-08-12T19:13:12.048Z,3.63
2022-08-12T19:18:29.851Z,3.63
2022-08-12T19:23:36.304Z,4.50
2022-08-12T19:28:41.554Z,3.28
2022-08-12T19:34:06.533Z,4.18
2022-08-12T19:39:15.235Z,3.80
2022-08-12T19:44:28.670Z,3.30
2022-08-12T19:49:32.108Z,3.28
2022-08-12T19:54:38.363Z,4.05
2022-08-12T20:00:03.373Z,3.40
2022-08-12T20:06:05.767Z,3.90
2022-08-12T20:10:37.102Z,4.40
2022-08-12T20:15:44.912Z,4.90
2022-08-12T20:20:49.233Z,4.50
2022-08-12T20:26:02.015Z,5.25
2022-08-12T20:31:11.925Z,5.07
2022-08-12T20:36:41.515Z,5.10
2022-08-12T20:41:43.882Z,4.70
2022-08-12T20:46:47.267Z,5.80
2022-08-12T20:51:55.948Z,5.20
2022-08-12T20:57:02.044Z,6.40
2022-08-12T21:02:13.756Z,5.57
2022-08-12T21:07:17.164Z,5.82
2022-08-12T21:12:34.099Z,5.40
2022-08-12T21:18:08.933Z,6.05
2022-08-12T21:23:05.955Z,6.15
2022-08-12T21:28:11.069Z,5.65
2022-08-12T21:33:17.086Z,5.35
2022-08-12T21:38:20.507Z,5.45
2022-08-12T21:43:44.649Z,6.00
2022-08-12T21:48:55.861Z,5.80
2022-08-12T21:54:07.195Z,5.93
2022-08-12T21:59:16.320Z,6.10
2022-08-12T22:04:37.951Z,5.80
2022-08-12T22:09:42.825Z,6.32
2022-08-12T22:14:48.465Z,6.15
2022-08-12T22:19:51.835Z,6.07
2022-08-12T22:24:58.412Z,6.63
2022-08-12T22:30:20.853Z,6.25
2022-08-12T22:35:56.682Z,6.72
2022-08-12T22:41:00.566Z,6.38
2022-08-12T22:46:23.070Z,7.35
2022-08-12T22:51:42.992Z,7.10
2022-08-12T22:56:57.530Z,7.95
2022-08-12T23:02:07.692Z,7.43
2022-08-12T23:07:14.960Z,7.65
2022-08-12T23:12:33.577Z,8.10
2022-08-12T23:17:40.770Z,7.47
2022-08-12T23:23:02.607Z,7.30
2022-08-12T23:28:29.725Z,7.20
2022-08-12T23:34:02.260Z,6.85
2022-08-12T23:39:01.958Z,6.97
2022-08-12T23:44:07.147Z,7.05
2022-08-12T23:49:26.732Z,7.22
2022-08-12T23:54:39.108Z,7.47
2022-08-12T23:59:55.391Z,7.78
